createdAt,value
2022-12-31T00:00:36.056Z,11.8
2022-12-31T00:02:37.345Z,11.8
2022-12-31T00:04:39.978Z,11.8
2022-12-31T00:07:08.136Z,11.8
2022-12-31T00:09:09.379Z,11.8
2022-12-31T00:13:14.997Z,11.8
2022-12-31T00:15:16.155Z,11.8
2022-12-31T00:17:17.288Z,11.8
2022-12-31T00:19:18.437Z,11.8
2022-12-31T00:21:19.562Z,11.8
2022-12-31T00:25:21.852Z,11.8
2022-12-31T00:27:26.165Z,11.9
2022-12-31T00:37:31.880Z,11.9
2022-12-31T00:43:38.470Z,11.8
2022-12-31T00:47:40.733Z,11.8
2022-12-31T00:49:41.887Z,11.8
2022-12-31T00:51:43.012Z,11.8
2022-12-31T00:55:48.482Z,11.8
2022-12-31T00:57:49.636Z,11.8
2022-12-31T00:59:50.763Z,11.8
2022-12-31T01:00:53.041Z,11.8
2022-12-31T01:02:54.365Z,11.8
2022-12-31T01:04:55.428Z,11.8
2022-12-31T01:06:56.574Z,11.8
2022-12-31T01:09:01.099Z,11.8
2022-12-31T01:11:02.303Z,11.8
2022-12-31T01:13:03.577Z,11.8
2022-12-31T01:15:04.819Z,11.8
2022-12-31T01:17:05.937Z,11.8
2022-12-31T01:19:07.107Z,11.8
2022-12-31T01:21:08.205Z,11.8
2022-12-31T01:23:12.528Z,11.8
2022-12-31T01:25:13.674Z,11.8
2022-12-31T01:27:14.790Z,11.8
2022-12-31T01:29:15.918Z,11.7
2022-12-31T01:31:17.139Z,11.7
2022-12-31T01:33:18.204Z,11.7
2022-12-31T01:35:19.349Z,11.7
2022-12-31T01:37:23.635Z,11.6
2022-12-31T01:39:24.752Z,11.7
2022-12-31T01:41:25.920Z,11.6
2022-12-31T01:43:27.210Z,11.6
2022-12-31T01:45:28.212Z,11.6
2022-12-31T01:47:29.346Z,11.6
2022-12-31T01:49:30.468Z,11.6
2022-12-31T01:51:34.784Z,11.4
2022-12-31T01:53:39.365Z,11.5
2022-12-31T01:55:37.156Z,11.4
2022-12-31T01:56:39.308Z,11.5
2022-12-31T01:58:40.471Z,11.4
2022-12-31T02:02:42.850Z,11.4
2022-12-31T02:04:47.149Z,11.5
2022-12-31T02:06:48.372Z,11.5
2022-12-31T02:08:49.636Z,11.4
2022-12-31T02:10:50.930Z,11.5
2022-12-31T02:12:52.065Z,11.5
2022-12-31T02:14:53.297Z,11.5
2022-12-31T02:16:54.430Z,11.4
2022-12-31T02:18:58.751Z,11.5
2022-12-31T02:20:59.892Z,11.4
2022-12-31T02:23:01.148Z,11.4
2022-12-31T02:25:02.385Z,11.4
2022-12-31T02:27:03.500Z,11.4
2022-12-31T02:29:04.773Z,11.4
2022-12-31T02:31:06.136Z,11.4
2022-12-31T02:33:10.518Z,11.4
2022-12-31T02:35:11.761Z,11.4
2022-12-31T02:37:13.020Z,11.3
2022-12-31T02:39:14.278Z,11.4
2022-12-31T02:41:15.503Z,11.3
2022-12-31T02:43:16.724Z,11.3
2022-12-31T02:45:17.978Z,11.3
2022-12-31T02:47:22.502Z,11.3
2022-12-31T02:49:23.752Z,11.3
2022-12-31T02:51:24.979Z,11.3
2022-12-31T02:52:27.227Z,11.3
2022-12-31T02:54:28.490Z,11.3
2022-12-31T02:56:29.746Z,11.3
2022-12-31T02:58:30.961Z,11.3
2022-12-31T03:00:35.615Z,11.3
2022-12-31T03:02:36.748Z,11.3
2022-12-31T03:04:37.937Z,11.3
2022-12-31T03:06:39.197Z,11.3
2022-12-31T03:08:40.459Z,11.3
2022-12-31T03:10:41.695Z,11.3
2022-12-31T03:12:42.829Z,11.3
2022-12-31T03:14:47.235Z,11.3
2022-12-31T03:16:48.353Z,11.3
2022-12-31T03:18:49.619Z,11.3
2022-12-31T03:20:50.641Z,11.3
2022-12-31T03:22:51.912Z,11.3
2022-12-31T03:24:53.128Z,11.2
2022-12-31T03:26:54.399Z,11.2
2022-12-31T03:28:58.674Z,11.2
2022-12-31T03:33:01.053Z,11.2
2022-12-31T03:43:10.535Z,11.2
2022-12-31T03:45:11.808Z,11.2
2022-12-31T03:47:13.032Z,11.2
2022-12-31T03:49:33.495Z,11.1
2022-12-31T03:51:34.722Z,11.1
2022-12-31T03:53:35.984Z,11.1
2022-12-31T03:55:40.493Z,11
2022-12-31T03:57:41.707Z,11.1
2022-12-31T03:59:42.952Z,11
2022-12-31T04:01:44.297Z,11
2022-12-31T04:03:45.452Z,11
2022-12-31T04:07:47.947Z,11
2022-12-31T04:09:52.470Z,10.9
2022-12-31T04:11:53.712Z,10.9
2022-12-31T04:13:54.932Z,10.9
2022-12-31T04:15:56.198Z,10.9
2022-12-31T04:17:57.432Z,10.9
2022-12-31T04:21:59.912Z,10.9
2022-12-31T04:24:04.477Z,10.9
2022-12-31T04:26:05.669Z,10.8
2022-12-31T04:28:07.060Z,10.9
2022-12-31T04:30:08.182Z,10.8
2022-12-31T04:32:09.452Z,10.8
2022-12-31T04:34:10.675Z,10.9
2022-12-31T04:36:11.907Z,10.8
2022-12-31T04:38:16.420Z,10.9
2022-12-31T04:40:17.569Z,10.8
2022-12-31T04:42:18.771Z,10.8
2022-12-31T04:43:21.045Z,10.8
2022-12-31T04:45:22.273Z,10.8
2022-12-31T04:47:24.020Z,10.8
2022-12-31T04:49:24.760Z,10.8
2022-12-31T04:53:30.519Z,10.8
2022-12-31T04:55:31.761Z,10.8
2022-12-31T04:57:33.024Z,10.8
2022-12-31T04:59:34.261Z,10.8
2022-12-31T05:01:35.663Z,10.8
2022-12-31T05:03:36.770Z,10.8
2022-12-31T05:05:41.284Z,10.8
2022-12-31T05:07:42.522Z,10.9
2022-12-31T05:09:43.791Z,10.9
2022-12-31T05:11:44.994Z,10.9
2022-12-31T05:13:46.272Z,10.8
2022-12-31T05:19:53.252Z,10.8
2022-12-31T05:21:54.484Z,10.8
2022-12-31T05:25:56.969Z,10.8
2022-12-31T05:27:58.206Z,10.8
2022-12-31T05:29:59.504Z,10.9
2022-12-31T05:32:00.715Z,10.8
2022-12-31T05:34:05.267Z,10.9
2022-12-31T05:36:06.499Z,10.9
2022-12-31T05:38:07.748Z,10.9
2022-12-31T05:45:13.715Z,10.9
2022-12-31T05:51:20.680Z,11.1
2022-12-31T05:53:23.370Z,11.1
2022-12-31T06:01:31.651Z,11.3
2022-12-31T06:11:37.815Z,11.4
2022-12-31T06:13:39.059Z,11.4
2022-12-31T06:17:44.718Z,11.4
2022-12-31T06:23:48.446Z,11.4
2022-12-31T06:25:49.693Z,11.4
2022-12-31T06:27:50.940Z,11.4
2022-12-31T06:29:55.432Z,11.4
2022-12-31T06:31:56.671Z,11.4
2022-12-31T06:33:57.920Z,11.5
2022-12-31T06:35:00.187Z,11.5
2022-12-31T06:37:01.331Z,11.5
2022-12-31T06:45:09.354Z,11.5
2022-12-31T06:47:10.580Z,11.5
2022-12-31T06:49:11.731Z,11.6
2022-12-31T06:51:16.949Z,11.6
2022-12-31T06:53:14.015Z,11.6
2022-12-31T06:55:15.262Z,11.6
2022-12-31T06:57:19.767Z,11.7
2022-12-31T06:59:21.002Z,11.7
2022-12-31T07:01:22.316Z,11.8
2022-12-31T07:03:23.418Z,11.9
2022-12-31T07:05:24.744Z,12
2022-12-31T07:07:25.746Z,12
2022-12-31T07:09:26.883Z,12
2022-12-31T07:11:31.320Z,12.1
2022-12-31T07:13:32.473Z,12.1
2022-12-31T07:15:33.729Z,12.1
2022-12-31T07:19:35.938Z,12.2
2022-12-31T07:21:37.210Z,12.3
2022-12-31T07:23:38.441Z,12.3
2022-12-31T07:25:42.744Z,12.4
2022-12-31T07:27:43.861Z,12.4
2022-12-31T07:29:44.993Z,12.4
2022-12-31T07:32:13.048Z,12.5
2022-12-31T07:34:14.155Z,12.5
2022-12-31T07:36:15.536Z,12.6
2022-12-31T07:38:19.574Z,12.6
2022-12-31T07:40:20.708Z,12.6
2022-12-31T07:42:21.847Z,12.6
2022-12-31T07:44:22.990Z,12.6
2022-12-31T07:46:24.307Z,12.6
2022-12-31T07:48:25.353Z,12.6
2022-12-31T07:50:26.667Z,12.7
2022-12-31T07:52:30.840Z,12.7
2022-12-31T07:54:31.937Z,12.7
2022-12-31T07:56:33.044Z,12.7
2022-12-31T07:58:34.174Z,12.8
2022-12-31T08:00:35.365Z,12.8
2022-12-31T08:02:36.655Z,12.8
2022-12-31T08:04:37.617Z,12.8
2022-12-31T08:06:42.113Z,12.8
2022-12-31T08:08:43.167Z,12.8
2022-12-31T08:10:44.317Z,12.8
2022-12-31T08:12:45.442Z,12.8
2022-12-31T08:14:46.562Z,12.9
2022-12-31T08:16:47.775Z,12.9
2022-12-31T08:18:48.867Z,12.8
2022-12-31T08:20:53.153Z,12.9
2022-12-31T08:22:54.275Z,12.9
2022-12-31T08:24:55.423Z,12.9
2022-12-31T08:30:00.162Z,12.9
2022-12-31T08:32:01.348Z,13
2022-12-31T08:36:07.025Z,13
2022-12-31T08:38:08.143Z,13
2022-12-31T08:40:09.272Z,13
2022-12-31T08:42:10.425Z,13
2022-12-31T08:46:12.784Z,13
2022-12-31T08:48:17.013Z,13
2022-12-31T08:50:18.148Z,13
2022-12-31T08:52:19.256Z,13
2022-12-31T08:54:20.387Z,13
2022-12-31T08:56:21.547Z,13
2022-12-31T08:58:22.664Z,13
2022-12-31T09:00:23.883Z,13
2022-12-31T09:02:28.134Z,12.9
2022-12-31T09:04:29.292Z,12.9
2022-12-31T09:06:30.385Z,12.9
2022-12-31T09:10:32.629Z,12.9
2022-12-31T09:12:33.786Z,12.9
2022-12-31T09:14:34.907Z,12.9
2022-12-31T09:20:43.233Z,12.8
2022-12-31T09:21:43.638Z,12.8
2022-12-31T09:25:45.914Z,12.8
2022-12-31T09:27:47.051Z,12.9
2022-12-31T09:29:51.371Z,12.9
2022-12-31T09:31:52.596Z,12.9
2022-12-31T09:33:53.663Z,12.9
2022-12-31T09:35:54.772Z,13
2022-12-31T09:37:55.903Z,13
2022-12-31T09:39:57.012Z,13
2022-12-31T09:41:58.140Z,13.1
2022-12-31T09:44:02.595Z,13.1
2022-12-31T09:46:03.618Z,13.1
2022-12-31T09:48:04.749Z,13.2
2022-12-31T09:50:05.866Z,13.2
2022-12-31T09:52:07.003Z,13.2
2022-12-31T09:54:08.212Z,13.3
2022-12-31T09:56:09.275Z,13.2
2022-12-31T10:00:14.751Z,13.3
2022-12-31T10:02:16.179Z,13.3
2022-12-31T10:04:17.043Z,13.4
2022-12-31T10:06:18.177Z,13.4
2022-12-31T10:12:24.778Z,13.4
2022-12-31T10:16:27.007Z,13.4
2022-12-31T10:17:29.144Z,13.4
2022-12-31T10:19:30.297Z,13.4
2022-12-31T10:21:31.404Z,13.4
2022-12-31T10:23:32.536Z,13.4
2022-12-31T10:25:38.935Z,13.5
2022-12-31T10:27:37.981Z,13.5
2022-12-31T10:29:39.117Z,13.6
2022-12-31T10:35:42.503Z,13.6
2022-12-31T10:41:49.063Z,13.6
2022-12-31T10:47:52.443Z,13.7
2022-12-31T10:49:53.618Z,13.7
2022-12-31T10:51:54.741Z,13.8
2022-12-31T10:53:59.017Z,13.8
2022-12-31T10:56:00.151Z,13.8
2022-12-31T10:58:04.247Z,13.8
2022-12-31T11:00:02.425Z,13.8
2022-12-31T11:02:03.776Z,13.8
2022-12-31T11:04:04.697Z,13.9
2022-12-31T11:06:05.916Z,14
2022-12-31T11:08:10.132Z,14
2022-12-31T11:10:11.262Z,14
2022-12-31T11:12:12.392Z,14.1
2022-12-31T11:14:40.405Z,14.1
2022-12-31T11:16:41.549Z,14.1
2022-12-31T11:18:42.691Z,14.2
2022-12-31T11:20:46.958Z,14.2
2022-12-31T11:22:48.090Z,14.3
2022-12-31T11:24:49.205Z,14.2
2022-12-31T11:26:50.357Z,14.2
2022-12-31T11:28:51.522Z,14.2
2022-12-31T11:30:52.685Z,14.1
2022-12-31T11:32:53.735Z,14.1
2022-12-31T11:34:58.043Z,14.1
2022-12-31T11:36:59.189Z,14.1
2022-12-31T11:39:00.294Z,14.1
2022-12-31T11:43:04.061Z,13.9
2022-12-31T11:45:05.187Z,13.9
2022-12-31T11:47:06.316Z,13.9
2022-12-31T11:53:12.886Z,14
2022-12-31T11:55:14.020Z,14
2022-12-31T12:01:17.535Z,14
2022-12-31T12:07:23.943Z,14.1
2022-12-31T12:08:26.097Z,14.2
2022-12-31T12:10:35.256Z,14.2
2022-12-31T12:12:28.310Z,14.2
2022-12-31T12:16:33.794Z,14.3
2022-12-31T12:20:35.975Z,14.2
2022-12-31T12:22:37.130Z,14
2022-12-31T12:24:38.255Z,14
2022-12-31T12:26:39.372Z,14
2022-12-31T12:28:44.130Z,14
2022-12-31T12:30:44.797Z,14.1
2022-12-31T12:32:45.916Z,14.1
2022-12-31T12:34:49.840Z,14.1
2022-12-31T12:36:48.180Z,14.1
2022-12-31T12:38:49.307Z,14.2
2022-12-31T12:40:50.443Z,14.2
2022-12-31T12:42:51.577Z,14.1
2022-12-31T12:44:55.852Z,14
2022-12-31T12:46:57.026Z,14
2022-12-31T12:48:58.116Z,13.9
2022-12-31T12:50:59.264Z,14
2022-12-31T12:53:00.386Z,14
2022-12-31T12:55:01.499Z,14.1
2022-12-31T12:57:02.619Z,14.1
2022-12-31T12:59:06.931Z,14.1
2022-12-31T13:03:09.179Z,14.1
2022-12-31T13:04:34.685Z,14.1
2022-12-31T13:06:12.438Z,14.1
2022-12-31T13:08:13.560Z,14.1
2022-12-31T13:10:14.692Z,14.1
2022-12-31T13:12:19.003Z,14.1
2022-12-31T13:18:22.357Z,14.2
2022-12-31T13:20:23.494Z,14.1
2022-12-31T13:22:24.622Z,14.1
2022-12-31T13:24:25.735Z,14.2
2022-12-31T13:26:30.047Z,14.1
2022-12-31T13:28:31.161Z,14.2
2022-12-31T13:30:32.288Z,14.2
2022-12-31T13:32:33.410Z,14.2
2022-12-31T13:34:34.527Z,14.2
2022-12-31T13:36:35.643Z,14.1
2022-12-31T13:38:36.812Z,14.1
2022-12-31T13:40:41.110Z,14.1
2022-12-31T13:42:42.222Z,14
2022-12-31T13:44:43.349Z,14
2022-12-31T13:46:44.468Z,14.1
2022-12-31T13:48:45.603Z,14
2022-12-31T13:52:47.833Z,14
2022-12-31T13:54:52.131Z,13.9
2022-12-31T13:56:53.276Z,13.9
2022-12-31T13:58:54.414Z,13.9
2022-12-31T13:59:56.558Z,13.9
2022-12-31T14:01:57.927Z,13.9
2022-12-31T14:03:58.801Z,13.8
2022-12-31T14:05:59.965Z,13.8
2022-12-31T14:08:04.248Z,13.8
2022-12-31T14:10:05.441Z,13.8
2022-12-31T14:12:06.493Z,13.8
2022-12-31T14:14:07.632Z,13.8
2022-12-31T14:16:08.839Z,13.9
2022-12-31T14:18:09.886Z,13.9
2022-12-31T14:20:11.025Z,13.9
2022-12-31T14:22:15.317Z,13.9
2022-12-31T14:24:16.432Z,14
2022-12-31T14:26:17.559Z,14
2022-12-31T14:28:18.667Z,13.9
2022-12-31T14:30:19.794Z,14
2022-12-31T14:32:20.957Z,14
2022-12-31T14:34:22.102Z,13.9
2022-12-31T14:38:27.494Z,14
2022-12-31T14:40:28.624Z,14
2022-12-31T14:42:29.766Z,14
2022-12-31T14:48:33.133Z,14
2022-12-31T14:50:37.467Z,14
2022-12-31T14:57:07.690Z,13.8
2022-12-31T14:59:08.824Z,13.8
2022-12-31T15:01:10.136Z,13.7
2022-12-31T15:03:14.343Z,13.8
2022-12-31T15:05:15.374Z,13.9
2022-12-31T15:07:16.525Z,13.9
2022-12-31T15:09:17.625Z,13.8
2022-12-31T15:11:18.766Z,13.8
2022-12-31T15:13:19.895Z,13.8
2022-12-31T15:15:21.008Z,13.9
2022-12-31T15:17:25.308Z,13.9
2022-12-31T15:19:26.457Z,13.9
2022-12-31T15:21:27.564Z,13.8
2022-12-31T15:23:28.716Z,13.9
2022-12-31T15:25:32.690Z,13.8
2022-12-31T15:27:30.921Z,13.9
2022-12-31T15:29:32.063Z,13.8
2022-12-31T15:37:39.703Z,13.8
2022-12-31T15:39:40.852Z,13.8
2022-12-31T15:42:03.024Z,13.9
2022-12-31T15:43:43.112Z,13.8
2022-12-31T15:45:47.469Z,13.8
2022-12-31T15:47:48.543Z,13.8
2022-12-31T15:49:49.672Z,13.9
2022-12-31T15:52:52.922Z,13.8
2022-12-31T15:54:54.047Z,13.9
2022-12-31T15:56:55.219Z,14
2022-12-31T15:58:59.537Z,13.9
2022-12-31T16:01:00.675Z,14
2022-12-31T16:05:02.862Z,13.9
2022-12-31T16:07:03.976Z,13.9
2022-12-31T16:13:10.554Z,14.9
2022-12-31T16:15:11.646Z,15
2022-12-31T16:17:12.779Z,15.1
2022-12-31T16:21:15.035Z,15.2
2022-12-31T16:23:16.138Z,15.3
2022-12-31T16:25:30.639Z,15.4
2022-12-31T16:27:21.552Z,15.5
2022-12-31T16:29:22.691Z,15.5
2022-12-31T16:31:23.847Z,15.5
2022-12-31T16:35:26.021Z,15.6
2022-12-31T16:37:27.146Z,15.6
2022-12-31T16:39:28.306Z,15.6
2022-12-31T16:41:32.564Z,15.6
2022-12-31T16:43:33.688Z,15.6
2022-12-31T16:45:34.823Z,15.5
2022-12-31T16:46:36.998Z,15.5
2022-12-31T16:48:38.074Z,15.5
2022-12-31T16:52:40.284Z,15.5
2022-12-31T16:56:45.722Z,15.5
2022-12-31T16:58:46.823Z,15.4
2022-12-31T17:00:47.945Z,15.4
2022-12-31T17:02:49.353Z,15.5
2022-12-31T17:04:55.600Z,15.5
2022-12-31T17:06:51.319Z,15.5
2022-12-31T17:08:55.587Z,15.5
2022-12-31T17:10:56.711Z,15.4
2022-12-31T17:13:28.182Z,15.4
2022-12-31T17:19:01.206Z,15.4
2022-12-31T17:23:06.627Z,15.2
2022-12-31T17:25:07.752Z,15.2
2022-12-31T17:27:08.851Z,15.3
2022-12-31T17:29:09.983Z,15.2
2022-12-31T17:31:11.197Z,15.3
2022-12-31T17:33:13.736Z,15.3
2022-12-31T17:35:14.826Z,15.2
2022-12-31T17:37:19.125Z,15.2
2022-12-31T17:39:20.241Z,15.1
2022-12-31T17:41:21.454Z,15.1
2022-12-31T17:42:23.513Z,15.2
2022-12-31T17:44:24.653Z,15.2
2022-12-31T17:46:25.980Z,15.1
2022-12-31T17:48:26.871Z,15.1
2022-12-31T17:50:31.165Z,15.2
2022-12-31T17:52:32.305Z,15.2
2022-12-31T17:54:33.425Z,15.1
2022-12-31T17:56:34.563Z,15.1
2022-12-31T17:58:35.646Z,15
2022-12-31T18:00:36.841Z,15.1
2022-12-31T18:02:38.187Z,15
2022-12-31T18:04:42.193Z,15.1
2022-12-31T18:10:45.569Z,15.1
2022-12-31T18:12:46.703Z,15.1
2022-12-31T18:14:47.804Z,15.1
2022-12-31T18:18:53.235Z,15.1
2022-12-31T18:20:54.355Z,15.2
2022-12-31T18:22:55.481Z,15.2
2022-12-31T18:24:56.611Z,15.2
2022-12-31T18:26:57.776Z,15.1
2022-12-31T18:28:58.852Z,15.1
2022-12-31T18:30:59.982Z,15.2
2022-12-31T18:33:04.283Z,15.2
2022-12-31T18:35:05.415Z,15.2
2022-12-31T18:39:34.543Z,15.2
2022-12-31T18:41:35.646Z,15.2
2022-12-31T18:43:36.753Z,15.2
2022-12-31T18:45:41.123Z,15.2
2022-12-31T18:47:42.193Z,15.3
2022-12-31T18:49:43.316Z,15.3
2022-12-31T18:51:44.434Z,15.3
2022-12-31T18:53:45.539Z,15.3
2022-12-31T18:55:46.681Z,15.4
2022-12-31T18:57:47.800Z,15.3
2022-12-31T18:59:52.107Z,15.3
2022-12-31T19:01:53.339Z,15.3
2022-12-31T19:03:54.344Z,15.4
2022-12-31T19:07:56.615Z,15.5
2022-12-31T19:09:58.613Z,15.4
2022-12-31T19:11:58.821Z,15.4
2022-12-31T19:18:05.369Z,15.5
2022-12-31T19:20:06.493Z,15.4
2022-12-31T19:22:07.664Z,15.4
2022-12-31T19:24:08.759Z,15.5
2022-12-31T19:26:09.879Z,15.5
2022-12-31T19:28:14.186Z,15.4
2022-12-31T19:30:15.274Z,15.5
2022-12-31T19:32:16.427Z,15.4
2022-12-31T19:33:18.602Z,15.4
2022-12-31T19:35:19.678Z,15.4
2022-12-31T19:37:20.796Z,15.4
2022-12-31T19:39:21.924Z,15.4
2022-12-31T19:41:26.220Z,15.6
2022-12-31T19:45:28.462Z,15.5
2022-12-31T19:47:29.583Z,15.5
2022-12-31T19:49:30.687Z,15.5
2022-12-31T19:51:31.833Z,15.5
2022-12-31T19:53:32.952Z,15.5
2022-12-31T19:55:37.243Z,15.4
2022-12-31T19:57:38.355Z,15.4
2022-12-31T19:59:39.467Z,15.3
2022-12-31T20:01:40.732Z,15.4
2022-12-31T20:03:41.797Z,15.4
2022-12-31T20:05:42.812Z,15.4
2022-12-31T20:07:43.941Z,15.3
2022-12-31T20:09:48.314Z,15.4
2022-12-31T20:11:49.356Z,15.4
2022-12-31T20:13:50.461Z,15.3
2022-12-31T20:15:51.581Z,15.3
2022-12-31T20:17:52.698Z,15.3
2022-12-31T20:19:53.824Z,15.4
2022-12-31T20:21:54.956Z,15.4
2022-12-31T20:23:59.239Z,15.5
2022-12-31T20:26:00.365Z,15.5
2022-12-31T20:28:01.490Z,15.4
2022-12-31T20:29:03.623Z,15.4
2022-12-31T20:33:05.849Z,15.4
2022-12-31T20:35:06.983Z,15.4
2022-12-31T20:37:11.516Z,15.3
2022-12-31T20:39:12.644Z,15.4
2022-12-31T20:41:13.741Z,15.3
2022-12-31T20:43:14.859Z,15.4
2022-12-31T20:45:15.998Z,15.4
2022-12-31T20:47:17.110Z,15.4
2022-12-31T20:49:31.192Z,15.4
2022-12-31T20:51:22.563Z,15.4
2022-12-31T20:53:23.701Z,15.3
2022-12-31T20:55:24.824Z,15.4
2022-12-31T20:57:31.611Z,15.4
2022-12-31T20:59:27.049Z,15.4
2022-12-31T21:01:47.788Z,15.3
2022-12-31T21:09:35.824Z,15.5
2022-12-31T21:11:36.941Z,15.5
2022-12-31T21:13:38.087Z,15.4
2022-12-31T21:15:39.232Z,15.5
2022-12-31T21:17:40.335Z,15.4
2022-12-31T21:19:44.605Z,15.4
2022-12-31T21:21:45.736Z,15.4
2022-12-31T21:23:46.883Z,15.5
2022-12-31T21:24:49.018Z,15.4
2022-12-31T21:26:50.185Z,15.5
2022-12-31T21:28:51.238Z,15.6
2022-12-31T21:30:52.450Z,15.5
2022-12-31T21:32:56.663Z,15.5
2022-12-31T21:35:39.696Z,15.5
2022-12-31T21:36:58.893Z,15.5
2022-12-31T21:39:00.035Z,15.6
2022-12-31T21:41:01.137Z,15.5
2022-12-31T21:43:02.277Z,15.5
2022-12-31T21:45:03.380Z,15.6
2022-12-31T21:47:34.721Z,15.7
2022-12-31T21:49:08.786Z,15.8
2022-12-31T21:51:09.947Z,15.7
2022-12-31T21:53:11.036Z,15.5
2022-12-31T21:55:12.186Z,15.3
2022-12-31T21:57:13.432Z,15.3
2022-12-31T21:59:14.424Z,15.2
2022-12-31T22:01:18.861Z,15.2
2022-12-31T22:03:19.883Z,15.2
2022-12-31T22:05:25.158Z,15.3
2022-12-31T22:07:22.091Z,15.3
2022-12-31T22:09:23.192Z,15.2
2022-12-31T22:13:25.428Z,15.2
2022-12-31T22:15:29.724Z,15.2
2022-12-31T22:17:30.851Z,15.2
2022-12-31T22:19:33.723Z,15.2
2022-12-31T22:21:59.957Z,15.3
2022-12-31T22:24:01.090Z,15.2
2022-12-31T22:28:40.617Z,15.5
2022-12-31T22:30:07.627Z,15.4
2022-12-31T22:32:08.725Z,15.4
2022-12-31T22:38:12.539Z,15.3
2022-12-31T22:40:13.252Z,15.3
2022-12-31T22:42:17.511Z,15.3
2022-12-31T22:44:18.652Z,15.3
2022-12-31T22:46:19.885Z,15.3
2022-12-31T22:48:20.908Z,15.4
2022-12-31T22:50:22.017Z,15.3
2022-12-31T22:52:23.153Z,15.2
2022-12-31T22:54:24.287Z,15.3
2022-12-31T22:56:28.613Z,15.3
2022-12-31T22:58:29.709Z,15.3
2022-12-31T23:00:30.833Z,15.3
2022-12-31T23:02:34.870Z,15.2
2022-12-31T23:04:33.143Z,15
2022-12-31T23:06:34.194Z,15
2022-12-31T23:10:39.616Z,15.1
2022-12-31T23:12:40.727Z,15.1
2022-12-31T23:14:41.859Z,15.1
2022-12-31T23:15:44.036Z,14.9
2022-12-31T23:17:45.165Z,14.9
2022-12-31T23:19:46.260Z,14.8
2022-12-31T23:21:48.941Z,14.8
2022-12-31T23:23:53.191Z,15
2022-12-31T23:25:54.342Z,15.1
2022-12-31T23:27:55.432Z,15.1
2022-12-31T23:29:56.564Z,15.1
2022-12-31T23:42:06.540Z,15.3
2022-12-31T23:44:07.659Z,15.4
2022-12-31T23:46:08.777Z,15.3
2022-12-31T23:48:09.922Z,15.4
2022-12-31T23:50:11.019Z,15.4
2022-12-31T23:52:15.327Z,15.5
2022-12-31T23:54:16.470Z,15.5
2022-12-31T23:56:22.823Z,15.5
2022-12-31T23:58:18.707Z,15.5
